sensor_id;sensor_type;location;lat;lon;timestamp;pressure;altitude;pressure_sealevel;temperature;humidity
250;BME280;109;19.806;-70.704;2023-04-25T00:01:27;101199.03;;;25.89;56.03
250;BME280;109;19.806;-70.704;2023-04-25T00:03:53;101198.63;;;25.79;56.29
250;BME280;109;19.806;-70.704;2023-04-25T00:06:20;101202.25;;;25.78;55.95
250;BME280;109;19.806;-70.704;2023-04-25T00:08:46;101210.06;;;25.83;55.56
250;BME280;109;19.806;-70.704;2023-04-25T00:11:13;101206.41;;;25.85;56.12
250;BME280;109;19.806;-70.704;2023-04-25T00:13:39;101206.31;;;25.87;55.92
250;BME280;109;19.806;-70.704;2023-04-25T00:16:07;101202.66;;;25.70;56.28
250;BME280;109;19.806;-70.704;2023-04-25T00:18:34;101208.16;;;25.67;56.42
250;BME280;109;19.806;-70.704;2023-04-25T00:21:00;101205.81;;;25.78;55.97
250;BME280;109;19.806;-70.704;2023-04-25T00:23:27;101212.44;;;25.89;56.01
250;BME280;109;19.806;-70.704;2023-04-25T00:25:53;101216.00;;;25.89;56.05
250;BME280;109;19.806;-70.704;2023-04-25T00:28:20;101216.25;;;25.85;56.52
250;BME280;109;19.806;-70.704;2023-04-25T00:30:46;101215.66;;;25.78;56.27
250;BME280;109;19.806;-70.704;2023-04-25T00:33:13;101217.66;;;25.74;56.40
250;BME280;109;19.806;-70.704;2023-04-25T00:35:39;101216.78;;;25.74;56.14
250;BME280;109;19.806;-70.704;2023-04-25T00:38:06;101222.03;;;25.75;56.81
250;BME280;109;19.806;-70.704;2023-04-25T00:40:32;101225.69;;;25.74;56.82
250;BME280;109;19.806;-70.704;2023-04-25T00:42:59;101228.59;;;25.70;57.21
250;BME280;109;19.806;-70.704;2023-04-25T00:45:29;101221.97;;;25.77;56.93
250;BME280;109;19.806;-70.704;2023-04-25T00:47:56;101224.63;;;25.77;56.65
250;BME280;109;19.806;-70.704;2023-04-25T00:50:23;101224.72;;;25.75;56.74
250;BME280;109;19.806;-70.704;2023-04-25T00:52:57;101219.19;;;25.78;57.28
250;BME280;109;19.806;-70.704;2023-04-25T00:55:23;101229.31;;;25.73;56.87
250;BME280;109;19.806;-70.704;2023-04-25T00:58:05;101226.44;;;25.76;57.41
250;BME280;109;19.806;-70.704;2023-04-25T01:00:46;101232.00;;;25.73;57.33
250;BME280;109;19.806;-70.704;2023-04-25T01:03:14;101235.75;;;25.69;57.13
250;BME280;109;19.806;-70.704;2023-04-25T01:05:52;101244.75;;;25.68;57.07
250;BME280;109;19.806;-70.704;2023-04-25T01:08:21;101242.78;;;25.72;56.94
250;BME280;109;19.806;-70.704;2023-04-25T01:10:56;101241.66;;;25.76;57.05
250;BME280;109;19.806;-70.704;2023-04-25T01:13:22;101248.22;;;25.70;57.38
250;BME280;109;19.806;-70.704;2023-04-25T01:15:56;101249.72;;;25.59;57.65
250;BME280;109;19.806;-70.704;2023-04-25T01:18:22;101247.91;;;25.59;57.76
250;BME280;109;19.806;-70.704;2023-04-25T01:21:10;101249.38;;;25.65;57.80
250;BME280;109;19.806;-70.704;2023-04-25T01:23:48;101249.25;;;25.68;57.55
250;BME280;109;19.806;-70.704;2023-04-25T01:26:15;101253.59;;;25.70;57.27
250;BME280;109;19.806;-70.704;2023-04-25T01:28:48;101250.97;;;25.69;57.46
250;BME280;109;19.806;-70.704;2023-04-25T01:31:16;101263.13;;;25.76;57.76
250;BME280;109;19.806;-70.704;2023-04-25T01:33:49;101258.31;;;25.65;57.02
250;BME280;109;19.806;-70.704;2023-04-25T01:36:15;101260.72;;;25.53;57.30
250;BME280;109;19.806;-70.704;2023-04-25T01:38:49;101262.59;;;25.51;57.58
250;BME280;109;19.806;-70.704;2023-04-25T01:41:24;101265.53;;;25.46;57.69
250;BME280;109;19.806;-70.704;2023-04-25T01:43:57;101274.50;;;25.45;57.68
250;BME280;109;19.806;-70.704;2023-04-25T01:46:24;101274.50;;;25.45;57.98
250;BME280;109;19.806;-70.704;2023-04-25T01:48:57;101285.16;;;25.47;57.61
250;BME280;109;19.806;-70.704;2023-04-25T01:51:23;101289.13;;;25.38;57.59
250;BME280;109;19.806;-70.704;2023-04-25T01:53:58;101290.31;;;25.32;57.78
250;BME280;109;19.806;-70.704;2023-04-25T01:56:25;101286.94;;;25.27;58.12
250;BME280;109;19.806;-70.704;2023-04-25T01:58:59;101293.47;;;25.22;57.51
250;BME280;109;19.806;-70.704;2023-04-25T02:02:00;101301.72;;;25.17;58.03
250;BME280;109;19.806;-70.704;2023-04-25T02:04:36;101306.41;;;25.12;57.88
250;BME280;109;19.806;-70.704;2023-04-25T02:07:04;101314.75;;;25.06;58.33
250;BME280;109;19.806;-70.704;2023-04-25T02:09:46;101321.84;;;25.07;57.82
250;BME280;109;19.806;-70.704;2023-04-25T02:12:21;101324.72;;;25.02;58.18
250;BME280;109;19.806;-70.704;2023-04-25T02:15:08;101313.13;;;25.02;57.87
250;BME280;109;19.806;-70.704;2023-04-25T02:17:48;101318.34;;;25.05;58.20
250;BME280;109;19.806;-70.704;2023-04-25T02:20:22;101317.41;;;25.06;58.14
250;BME280;109;19.806;-70.704;2023-04-25T02:22:49;101314.44;;;25.12;58.01
250;BME280;109;19.806;-70.704;2023-04-25T02:25:22;101316.25;;;25.11;57.80
250;BME280;109;19.806;-70.704;2023-04-25T02:27:48;101312.13;;;25.04;58.33
250;BME280;109;19.806;-70.704;2023-04-25T02:30:23;101318.34;;;25.05;58.20
250;BME280;109;19.806;-70.704;2023-04-25T02:32:49;101316.19;;;25.13;58.37
250;BME280;109;19.806;-70.704;2023-04-25T02:35:30;101321.41;;;25.16;58.36
250;BME280;109;19.806;-70.704;2023-04-25T02:38:03;101318.94;;;25.11;58.26
250;BME280;109;19.806;-70.704;2023-04-25T02:40:29;101317.78;;;25.17;57.90
250;BME280;109;19.806;-70.704;2023-04-25T02:43:02;101314.31;;;25.15;57.92
250;BME280;109;19.806;-70.704;2023-04-25T02:45:28;101328.78;;;25.11;57.90
250;BME280;109;19.806;-70.704;2023-04-25T02:48:02;101319.78;;;25.12;58.34
250;BME280;109;19.806;-70.704;2023-04-25T02:50:31;101324.16;;;25.15;58.44
250;BME280;109;19.806;-70.704;2023-04-25T02:53:04;101321.53;;;25.13;58.45
250;BME280;109;19.806;-70.704;2023-04-25T02:55:36;101326.03;;;25.13;58.47
250;BME280;109;19.806;-70.704;2023-04-25T02:58:10;101330.81;;;25.06;58.53
250;BME280;109;19.806;-70.704;2023-04-25T03:00:59;101335.22;;;25.07;58.28
250;BME280;109;19.806;-70.704;2023-04-25T03:03:32;101335.22;;;25.07;58.24
250;BME280;109;19.806;-70.704;2023-04-25T03:05:58;101336.91;;;25.09;58.16
250;BME280;109;19.806;-70.704;2023-04-25T03:08:32;101326.31;;;25.06;58.28
250;BME280;109;19.806;-70.704;2023-04-25T03:11:01;101321.78;;;25.08;58.20
250;BME280;109;19.806;-70.704;2023-04-25T03:13:34;101320.75;;;25.11;58.39
250;BME280;109;19.806;-70.704;2023-04-25T03:16:01;101310.03;;;25.11;58.45
250;BME280;109;19.806;-70.704;2023-04-25T03:18:34;101311.94;;;25.09;58.75
250;BME280;109;19.806;-70.704;2023-04-25T03:21:00;101312.88;;;25.08;58.31
250;BME280;109;19.806;-70.704;2023-04-25T03:23:34;101312.13;;;25.04;58.27
250;BME280;109;19.806;-70.704;2023-04-25T03:26:00;101314.75;;;25.06;58.84
250;BME280;109;19.806;-70.704;2023-04-25T03:28:42;101303.03;;;25.08;58.77
250;BME280;109;19.806;-70.704;2023-04-25T03:31:15;101304.84;;;25.08;58.84
250;BME280;109;19.806;-70.704;2023-04-25T03:33:42;101304.75;;;25.09;59.08
250;BME280;109;19.806;-70.704;2023-04-25T03:36:16;101298.66;;;25.06;58.67
250;BME280;109;19.806;-70.704;2023-04-25T03:38:43;101297.75;;;25.07;58.90
250;BME280;109;19.806;-70.704;2023-04-25T03:41:17;101294.38;;;25.02;58.51
250;BME280;109;19.806;-70.704;2023-04-25T03:43:47;101292.16;;;24.93;58.79
250;BME280;109;19.806;-70.704;2023-04-25T03:46:20;101287.00;;;24.88;58.79
250;BME280;109;19.806;-70.704;2023-04-25T03:48:48;101292.41;;;24.87;59.25
250;BME280;109;19.806;-70.704;2023-04-25T03:51:26;101290.53;;;24.89;58.85
250;BME280;109;19.806;-70.704;2023-04-25T03:54:01;101287.66;;;24.93;58.97
250;BME280;109;19.806;-70.704;2023-04-25T03:56:30;101286.13;;;24.88;58.96
250;BME280;109;19.806;-70.704;2023-04-25T03:59:14;101275.94;;;24.96;59.01
250;BME280;109;19.806;-70.704;2023-04-25T04:01:55;101269.72;;;24.95;58.55
250;BME280;109;19.806;-70.704;2023-04-25T04:04:22;101263.25;;;24.99;58.71
250;BME280;109;19.806;-70.704;2023-04-25T04:06:55;101266.16;;;24.95;58.07
250;BME280;109;19.806;-70.704;2023-04-25T04:09:25;101262.69;;;24.93;57.97
250;BME280;109;19.806;-70.704;2023-04-25T04:12:04;101263.50;;;24.95;58.20
250;BME280;109;19.806;-70.704;2023-04-25T04:14:40;101259.88;;;24.96;57.67
250;BME280;109;19.806;-70.704;2023-04-25T04:17:06;101249.88;;;24.99;57.60
250;BME280;109;19.806;-70.704;2023-04-25T04:19:39;101257.38;;;25.10;57.44
250;BME280;109;19.806;-70.704;2023-04-25T04:22:12;101256.63;;;25.08;57.18
250;BME280;109;19.806;-70.704;2023-04-25T04:24:53;101255.50;;;25.12;57.49
250;BME280;109;19.806;-70.704;2023-04-25T04:27:49;101244.09;;;25.08;57.13
250;BME280;109;19.806;-70.704;2023-04-25T04:30:39;101247.06;;;25.02;57.19
250;BME280;109;19.806;-70.704;2023-04-25T04:33:13;101245.25;;;25.03;57.15
250;BME280;109;19.806;-70.704;2023-04-25T04:35:56;101250.47;;;25.06;57.30
250;BME280;109;19.806;-70.704;2023-04-25T04:38:29;101244.00;;;25.10;56.94
250;BME280;109;19.806;-70.704;2023-04-25T04:41:00;101238.63;;;25.10;56.77
250;BME280;109;19.806;-70.704;2023-04-25T04:43:53;101235.47;;;25.02;57.08
250;BME280;109;19.806;-70.704;2023-04-25T04:46:38;101237.28;;;25.01;57.11
250;BME280;109;19.806;-70.704;2023-04-25T04:49:35;101239.63;;;25.09;56.99
250;BME280;109;19.806;-70.704;2023-04-25T04:52:36;101226.50;;;25.03;56.90
250;BME280;109;19.806;-70.704;2023-04-25T04:55:49;101223.97;;;25.00;57.20
250;BME280;109;19.806;-70.704;2023-04-25T04:58:31;101225.75;;;24.99;57.55
250;BME280;109;19.806;-70.704;2023-04-25T05:01:43;101224.53;;;24.88;57.96
250;BME280;109;19.806;-70.704;2023-04-25T05:04:25;101221.13;;;24.84;58.45
250;BME280;109;19.806;-70.704;2023-04-25T05:07:18;101218.56;;;24.83;58.45
250;BME280;109;19.806;-70.704;2023-04-25T05:10:14;101208.72;;;24.83;58.31
250;BME280;109;19.806;-70.704;2023-04-25T05:12:56;101217.63;;;24.84;58.33
250;BME280;109;19.806;-70.704;2023-04-25T05:15:45;101211.38;;;24.83;58.64
250;BME280;109;19.806;-70.704;2023-04-25T05:18:47;101205.16;;;24.83;58.57
250;BME280;109;19.806;-70.704;2023-04-25T05:21:40;101207.31;;;24.74;58.43
250;BME280;109;19.806;-70.704;2023-04-25T05:24:40;101201.22;;;24.71;58.73
250;BME280;109;19.806;-70.704;2023-04-25T05:27:32;101199.81;;;24.62;58.77
250;BME280;109;19.806;-70.704;2023-04-25T05:30:14;101197.00;;;24.65;58.57
250;BME280;109;19.806;-70.704;2023-04-25T05:33:07;101189.03;;;24.64;58.58
250;BME280;109;19.806;-70.704;2023-04-25T05:35:40;101195.28;;;24.64;58.45
250;BME280;109;19.806;-70.704;2023-04-25T05:38:07;101186.75;;;24.56;58.68
250;BME280;109;19.806;-70.704;2023-04-25T05:41:00;101181.16;;;24.61;58.53
250;BME280;109;19.806;-70.704;2023-04-25T05:43:59;101181.09;;;24.62;57.89
250;BME280;109;19.806;-70.704;2023-04-25T05:46:41;101173.47;;;24.72;57.83
250;BME280;109;19.806;-70.704;2023-04-25T05:49:48;101169.25;;;24.68;57.52
250;BME280;109;19.806;-70.704;2023-04-25T05:52:47;101177.91;;;24.73;57.46
250;BME280;109;19.806;-70.704;2023-04-25T05:55:26;101176.06;;;24.75;57.68
250;BME280;109;19.806;-70.704;2023-04-25T05:58:03;101181.22;;;24.80;57.07
250;BME280;109;19.806;-70.704;2023-04-25T06:00:49;101175.78;;;24.81;57.19
250;BME280;109;19.806;-70.704;2023-04-25T06:03:22;101181.84;;;24.85;56.98
250;BME280;109;19.806;-70.704;2023-04-25T06:05:49;101185.09;;;24.91;56.88
250;BME280;109;19.806;-70.704;2023-04-25T06:08:23;101176.06;;;24.94;56.99
250;BME280;109;19.806;-70.704;2023-04-25T06:10:50;101181.50;;;24.92;57.11
250;BME280;109;19.806;-70.704;2023-04-25T06:13:23;101178.59;;;24.97;56.60
250;BME280;109;19.806;-70.704;2023-04-25T06:15:50;101173.59;;;24.89;56.59
250;BME280;109;19.806;-70.704;2023-04-25T06:18:23;101173.53;;;24.91;56.62
250;BME280;109;19.806;-70.704;2023-04-25T06:20:50;101166.28;;;24.93;56.76
250;BME280;109;19.806;-70.704;2023-04-25T06:23:24;101171.50;;;24.96;56.72
250;BME280;109;19.806;-70.704;2023-04-25T06:26:04;101165.84;;;25.02;56.75
250;BME280;109;19.806;-70.704;2023-04-25T06:28:39;101163.88;;;25.05;56.74
250;BME280;109;19.806;-70.704;2023-04-25T06:31:06;101165.84;;;25.02;57.17
250;BME280;109;19.806;-70.704;2023-04-25T06:33:43;101166.44;;;25.08;57.20
250;BME280;109;19.806;-70.704;2023-04-25T06:36:16;101166.50;;;25.07;56.62
250;BME280;109;19.806;-70.704;2023-04-25T06:38:44;101167.44;;;25.06;56.89
250;BME280;109;19.806;-70.704;2023-04-25T06:41:17;101164.75;;;25.06;56.94
250;BME280;109;19.806;-70.704;2023-04-25T06:43:44;101162.56;;;25.14;57.01
250;BME280;109;19.806;-70.704;2023-04-25T06:46:37;101158.06;;;25.15;56.84
250;BME280;109;19.806;-70.704;2023-04-25T06:49:13;101151.22;;;25.09;56.84
250;BME280;109;19.806;-70.704;2023-04-25T06:51:46;101154.91;;;25.06;56.40
250;BME280;109;19.806;-70.704;2023-04-25T06:54:19;101147.03;;;25.03;56.58
250;BME280;109;19.806;-70.704;2023-04-25T06:56:56;101143.00;;;24.95;57.02
250;BME280;109;19.806;-70.704;2023-04-25T06:59:31;101148.03;;;25.01;56.91
250;BME280;109;19.806;-70.704;2023-04-25T07:02:11;101136.13;;;24.89;56.85
250;BME280;109;19.806;-70.704;2023-04-25T07:04:38;101136.97;;;24.90;56.92
250;BME280;109;19.806;-70.704;2023-04-25T07:07:11;101139.19;;;24.82;57.21
250;BME280;109;19.806;-70.704;2023-04-25T07:09:44;101141.59;;;24.67;57.30
250;BME280;109;19.806;-70.704;2023-04-25T07:12:17;101132.34;;;24.74;57.45
250;BME280;109;19.806;-70.704;2023-04-25T07:14:43;101127.09;;;24.71;57.10
250;BME280;109;19.806;-70.704;2023-04-25T07:17:16;101131.03;;;24.64;57.35
250;BME280;109;19.806;-70.704;2023-04-25T07:19:43;101122.44;;;24.58;57.68
250;BME280;109;19.806;-70.704;2023-04-25T07:22:16;101120.19;;;24.67;57.66
250;BME280;109;19.806;-70.704;2023-04-25T07:24:43;101113.63;;;24.74;57.84
250;BME280;109;19.806;-70.704;2023-04-25T07:27:29;101111.88;;;24.73;57.95
250;BME280;109;19.806;-70.704;2023-04-25T07:30:11;101115.13;;;24.61;57.72
250;BME280;109;19.806;-70.704;2023-04-25T07:32:44;101112.38;;;24.63;58.30
250;BME280;109;19.806;-70.704;2023-04-25T07:35:11;101106.81;;;24.67;58.39
250;BME280;109;19.806;-70.704;2023-04-25T07:37:44;101107.44;;;24.72;58.40
250;BME280;109;19.806;-70.704;2023-04-25T07:40:14;101103.13;;;24.70;58.63
250;BME280;109;19.806;-70.704;2023-04-25T07:42:54;101104.88;;;24.71;58.21
250;BME280;109;19.806;-70.704;2023-04-25T07:45:51;101094.44;;;24.65;58.04
250;BME280;109;19.806;-70.704;2023-04-25T07:48:23;101090.41;;;24.56;58.19
250;BME280;109;19.806;-70.704;2023-04-25T07:50:52;101096.97;;;24.68;58.06
250;BME280;109;19.806;-70.704;2023-04-25T07:53:25;101095.31;;;24.65;57.97
250;BME280;109;19.806;-70.704;2023-04-25T07:55:57;101094.44;;;24.65;57.82
250;BME280;109;19.806;-70.704;2023-04-25T07:58:33;101096.50;;;24.58;57.58
250;BME280;109;19.806;-70.704;2023-04-25T08:01:22;101093.00;;;24.58;56.86
250;BME280;109;19.806;-70.704;2023-04-25T08:04:00;101093.19;;;24.72;56.57
250;BME280;109;19.806;-70.704;2023-04-25T08:06:53;101101.16;;;24.73;56.57
250;BME280;109;19.806;-70.704;2023-04-25T08:09:29;101090.31;;;24.77;56.38
250;BME280;109;19.806;-70.704;2023-04-25T08:12:13;101094.47;;;24.84;56.74
250;BME280;109;19.806;-70.704;2023-04-25T08:14:47;101091.94;;;24.81;57.22
250;BME280;109;19.806;-70.704;2023-04-25T08:17:14;101094.81;;;24.76;57.41
250;BME280;109;19.806;-70.704;2023-04-25T08:19:47;101090.75;;;24.67;57.68
250;BME280;109;19.806;-70.704;2023-04-25T08:22:24;101089.81;;;24.68;57.71
250;BME280;109;19.806;-70.704;2023-04-25T08:25:19;101090.69;;;24.69;57.45
250;BME280;109;19.806;-70.704;2023-04-25T08:27:53;101093.56;;;24.64;57.55
250;BME280;109;19.806;-70.704;2023-04-25T08:30:21;101100.78;;;24.62;57.81
250;BME280;109;19.806;-70.704;2023-04-25T08:32:54;101107.31;;;24.57;57.89
250;BME280;109;19.806;-70.704;2023-04-25T08:35:44;101107.31;;;24.57;58.05
250;BME280;109;19.806;-70.704;2023-04-25T08:38:17;101103.50;;;24.44;57.94
250;BME280;109;19.806;-70.704;2023-04-25T08:40:52;101103.13;;;24.51;57.75
250;BME280;109;19.806;-70.704;2023-04-25T08:43:29;101099.56;;;24.51;58.16
250;BME280;109;19.806;-70.704;2023-04-25T08:46:00;101108.47;;;24.51;58.07
250;BME280;109;19.806;-70.704;2023-04-25T08:48:52;101107.53;;;24.52;58.03
250;BME280;109;19.806;-70.704;2023-04-25T08:51:25;101108.47;;;24.51;58.41
250;BME280;109;19.806;-70.704;2023-04-25T08:53:54;101107.66;;;24.49;58.38
250;BME280;109;19.806;-70.704;2023-04-25T08:56:28;101125.47;;;24.50;58.54
250;BME280;109;19.806;-70.704;2023-04-25T08:59:15;101126.19;;;24.54;58.59
250;BME280;109;19.806;-70.704;2023-04-25T09:01:50;101124.31;;;24.56;58.29
250;BME280;109;19.806;-70.704;2023-04-25T09:04:20;101126.94;;;24.57;58.27
250;BME280;109;19.806;-70.704;2023-04-25T09:06:54;101133.22;;;24.56;58.22
250;BME280;109;19.806;-70.704;2023-04-25T09:09:21;101133.78;;;24.63;58.31
250;BME280;109;19.806;-70.704;2023-04-25T09:11:55;101135.72;;;24.59;57.78
250;BME280;109;19.806;-70.704;2023-04-25T09:14:24;101138.63;;;24.55;57.64
250;BME280;109;19.806;-70.704;2023-04-25T09:17:13;101137.63;;;24.57;57.69
250;BME280;109;19.806;-70.704;2023-04-25T09:19:53;101136.66;;;24.58;57.40
250;BME280;109;19.806;-70.704;2023-04-25T09:22:30;101146.81;;;24.52;58.30
250;BME280;109;19.806;-70.704;2023-04-25T09:25:11;101139.78;;;24.49;58.28
250;BME280;109;19.806;-70.704;2023-04-25T09:27:51;101143.09;;;24.35;58.92
250;BME280;109;19.806;-70.704;2023-04-25T09:30:30;101140.91;;;24.25;59.26
250;BME280;109;19.806;-70.704;2023-04-25T09:33:10;101143.88;;;24.19;59.29
250;BME280;109;19.806;-70.704;2023-04-25T09:35:48;101151.91;;;24.19;59.64
250;BME280;109;19.806;-70.704;2023-04-25T09:38:44;101152.13;;;24.13;59.73
250;BME280;109;19.806;-70.704;2023-04-25T09:41:32;101159.63;;;24.04;59.94
250;BME280;109;19.806;-70.704;2023-04-25T09:44:12;101159.09;;;23.96;60.10
250;BME280;109;19.806;-70.704;2023-04-25T09:46:41;101154.03;;;23.90;59.87
250;BME280;109;19.806;-70.704;2023-04-25T09:49:21;101164.44;;;23.96;59.78
250;BME280;109;19.806;-70.704;2023-04-25T09:52:09;101161.25;;;23.88;60.10
250;BME280;109;19.806;-70.704;2023-04-25T09:54:55;101170.72;;;23.75;60.17
250;BME280;109;19.806;-70.704;2023-04-25T09:57:32;101164.56;;;23.73;60.28
250;BME280;109;19.806;-70.704;2023-04-25T10:00:19;101176.59;;;23.63;60.38
250;BME280;109;19.806;-70.704;2023-04-25T10:02:54;101183.81;;;23.61;60.39
250;BME280;109;19.806;-70.704;2023-04-25T10:05:41;101183.69;;;23.64;60.41
250;BME280;109;19.806;-70.704;2023-04-25T10:08:17;101182.94;;;23.60;60.32
250;BME280;109;19.806;-70.704;2023-04-25T10:10:44;101187.50;;;23.57;60.54
250;BME280;109;19.806;-70.704;2023-04-25T10:13:18;101188.59;;;23.53;60.46
250;BME280;109;19.806;-70.704;2023-04-25T10:15:45;101185.75;;;23.56;60.62
250;BME280;109;19.806;-70.704;2023-04-25T10:18:19;101191.94;;;23.58;60.43
250;BME280;109;19.806;-70.704;2023-04-25T10:20:46;101191.81;;;23.61;60.46
250;BME280;109;19.806;-70.704;2023-04-25T10:23:20;101198.09;;;23.60;60.25
250;BME280;109;19.806;-70.704;2023-04-25T10:25:46;101198.09;;;23.60;60.35
250;BME280;109;19.806;-70.704;2023-04-25T10:31:31;101195.97;;;23.68;60.26
250;BME280;109;19.806;-70.704;2023-04-25T10:34:19;101200.53;;;23.66;60.42
250;BME280;109;19.806;-70.704;2023-04-25T10:36:56;101203.31;;;23.63;60.40
250;BME280;109;19.806;-70.704;2023-04-25T10:39:24;101203.25;;;23.64;60.25
250;BME280;109;19.806;-70.704;2023-04-25T10:42:02;101214.94;;;23.62;60.17
250;BME280;109;19.806;-70.704;2023-04-25T10:44:29;101215.63;;;23.67;60.13
250;BME280;109;19.806;-70.704;2023-04-25T10:47:02;101212.88;;;23.68;59.98
250;BME280;109;19.806;-70.704;2023-04-25T10:52:24;101215.22;;;23.76;59.61
250;BME280;109;19.806;-70.704;2023-04-25T10:54:58;101214.41;;;23.74;59.70
250;BME280;109;19.806;-70.704;2023-04-25T10:57:28;101218.22;;;23.68;59.91
250;BME280;109;19.806;-70.704;2023-04-25T11:00:08;101229.13;;;23.84;59.64
250;BME280;109;19.806;-70.704;2023-04-25T11:02:41;101224.41;;;23.91;59.28
250;BME280;109;19.806;-70.704;2023-04-25T11:05:07;101222.25;;;23.99;59.23
250;BME280;109;19.806;-70.704;2023-04-25T11:08:00;101225.41;;;24.09;59.07
250;BME280;109;19.806;-70.704;2023-04-25T11:10:30;101224.22;;;24.16;58.82
250;BME280;109;19.806;-70.704;2023-04-25T11:12:59;101219.34;;;24.25;58.56
250;BME280;109;19.806;-70.704;2023-04-25T11:15:26;101217.88;;;24.38;58.32
250;BME280;109;19.806;-70.704;2023-04-25T11:17:54;101213.63;;;24.53;57.88
250;BME280;109;19.806;-70.704;2023-04-25T11:20:22;101222.63;;;24.71;57.53
250;BME280;109;19.806;-70.704;2023-04-25T11:22:52;101223.59;;;24.89;56.98
250;BME280;109;19.806;-70.704;2023-04-25T11:25:19;101221.81;;;25.08;56.60
250;BME280;109;19.806;-70.704;2023-04-25T11:27:56;101226.41;;;25.23;56.47
250;BME280;109;19.806;-70.704;2023-04-25T11:30:24;101230.34;;;25.35;56.41
250;BME280;109;19.806;-70.704;2023-04-25T11:32:52;101232.56;;;25.44;56.04
250;BME280;109;19.806;-70.704;2023-04-25T11:35:19;101236.06;;;25.46;56.00
250;BME280;109;19.806;-70.704;2023-04-25T11:37:49;101232.91;;;25.55;56.00
250;BME280;109;19.806;-70.704;2023-04-25T11:40:16;101243.16;;;25.64;55.48
250;BME280;109;19.806;-70.704;2023-04-25T11:42:46;101244.22;;;25.79;55.03
250;BME280;109;19.806;-70.704;2023-04-25T11:45:13;101244.56;;;25.90;54.05
250;BME280;109;19.806;-70.704;2023-04-25T11:47:40;101249.47;;;25.99;53.62
250;BME280;109;19.806;-70.704;2023-04-25T11:50:08;101247.47;;;26.20;53.73
250;BME280;109;19.806;-70.704;2023-04-25T11:55:15;101248.88;;;26.62;53.02
250;BME280;109;19.806;-70.704;2023-04-25T11:57:43;101243.34;;;26.80;52.64
250;BME280;109;19.806;-70.704;2023-04-25T12:00:12;101245.63;;;26.88;51.24
250;BME280;109;19.806;-70.704;2023-04-25T12:02:58;101243.56;;;26.93;51.04
250;BME280;109;19.806;-70.704;2023-04-25T12:05:30;101244.28;;;26.97;51.77
250;BME280;109;19.806;-70.704;2023-04-25T12:07:57;101238.06;;;27.12;51.56
250;BME280;109;19.806;-70.704;2023-04-25T12:10:24;101240.75;;;27.12;51.18
250;BME280;109;19.806;-70.704;2023-04-25T12:12:51;101236.00;;;27.17;51.03
250;BME280;109;19.806;-70.704;2023-04-25T12:15:24;101248.94;;;26.93;52.11
250;BME280;109;19.806;-70.704;2023-04-25T12:17:52;101248.63;;;26.99;51.93
250;BME280;109;19.806;-70.704;2023-04-25T12:20:23;101260.50;;;27.11;51.93
250;BME280;109;19.806;-70.704;2023-04-25T12:22:51;101255.03;;;27.12;51.99
250;BME280;109;19.806;-70.704;2023-04-25T12:25:42;101259.00;;;27.05;51.64
250;BME280;109;19.806;-70.704;2023-04-25T12:28:22;101263.91;;;27.14;52.20
250;BME280;109;19.806;-70.704;2023-04-25T12:31:04;101269.09;;;27.17;52.21
250;BME280;109;19.806;-70.704;2023-04-25T12:33:35;101267.88;;;27.23;52.46
250;BME280;109;19.806;-70.704;2023-04-25T12:36:04;101269.94;;;27.34;52.28
250;BME280;109;19.806;-70.704;2023-04-25T12:38:41;101263.38;;;27.24;52.64
250;BME280;109;19.806;-70.704;2023-04-25T12:41:08;101261.53;;;27.08;53.37
250;BME280;109;19.806;-70.704;2023-04-25T12:43:35;101269.66;;;26.91;54.05
250;BME280;109;19.806;-70.704;2023-04-25T12:46:01;101260.81;;;26.89;53.57
250;BME280;109;19.806;-70.704;2023-04-25T12:48:28;101261.19;;;26.99;53.98
250;BME280;109;19.806;-70.704;2023-04-25T12:50:54;101259.47;;;27.13;53.46
250;BME280;109;19.806;-70.704;2023-04-25T12:53:22;101258.16;;;27.36;52.86
250;BME280;109;19.806;-70.704;2023-04-25T12:55:50;101255.03;;;27.60;52.66
250;BME280;109;19.806;-70.704;2023-04-25T12:58:19;101258.44;;;27.63;53.31
250;BME280;109;19.806;-70.704;2023-04-25T13:00:46;101260.25;;;27.63;52.88
250;BME280;109;19.806;-70.704;2023-04-25T13:03:13;101260.78;;;27.53;53.14
250;BME280;109;19.806;-70.704;2023-04-25T13:05:40;101258.34;;;27.65;53.18
250;BME280;109;19.806;-70.704;2023-04-25T13:08:07;101263.78;;;27.79;52.64
250;BME280;109;19.806;-70.704;2023-04-25T13:10:33;101272.84;;;27.92;53.26
250;BME280;109;19.806;-70.704;2023-04-25T13:13:01;101276.84;;;27.85;52.93
250;BME280;109;19.806;-70.704;2023-04-25T13:15:28;101278.25;;;27.92;53.41
250;BME280;109;19.806;-70.704;2023-04-25T13:17:55;101278.44;;;27.73;52.72
250;BME280;109;19.806;-70.704;2023-04-25T13:20:22;101271.88;;;27.63;52.93
250;BME280;109;19.806;-70.704;2023-04-25T13:22:48;101276.03;;;27.69;51.84
250;BME280;109;19.806;-70.704;2023-04-25T13:25:15;101268.09;;;27.97;52.60
250;BME280;109;19.806;-70.704;2023-04-25T13:27:42;101264.50;;;28.26;52.10
250;BME280;109;19.806;-70.704;2023-04-25T13:30:10;101261.47;;;28.33;51.81
250;BME280;109;19.806;-70.704;2023-04-25T13:32:37;101262.97;;;28.22;51.95
250;BME280;109;19.806;-70.704;2023-04-25T13:35:05;101264.72;;;28.38;51.53
250;BME280;109;19.806;-70.704;2023-04-25T13:37:32;101263.91;;;28.66;51.23
250;BME280;109;19.806;-70.704;2023-04-25T13:40:03;101262.97;;;28.37;52.36
250;BME280;109;19.806;-70.704;2023-04-25T13:42:31;101261.81;;;28.56;51.39
250;BME280;109;19.806;-70.704;2023-04-25T13:44:57;101255.56;;;28.70;51.91
250;BME280;109;19.806;-70.704;2023-04-25T13:47:26;101255.94;;;28.64;50.87
250;BME280;109;19.806;-70.704;2023-04-25T13:49:54;101252.00;;;28.55;49.82
250;BME280;109;19.806;-70.704;2023-04-25T13:52:20;101260.16;;;28.68;50.18
250;BME280;109;19.806;-70.704;2023-04-25T13:54:47;101257.16;;;28.87;50.67
250;BME280;109;19.806;-70.704;2023-04-25T13:57:13;101257.28;;;28.85;51.74